createdAt,value
2017-09-10T00:02:13.197Z,12.20
2017-09-10T00:04:40.769Z,12.20
2017-09-10T00:07:09.165Z,12.20
2017-09-10T00:09:37.511Z,12.20
2017-09-10T00:12:05.061Z,12.10
2017-09-10T00:14:32.665Z,12.20
2017-09-10T00:17:00.217Z,12.20
2017-09-10T00:19:28.573Z,12.20
2017-09-10T00:21:56.173Z,12.10
2017-09-10T00:24:23.765Z,12.20
2017-09-10T00:26:51.344Z,12.10
2017-09-10T00:29:18.897Z,12.10
2017-09-10T00:31:46.507Z,12.10
2017-09-10T00:34:14.078Z,12.10
2017-09-10T00:36:41.673Z,12.10
2017-09-10T00:39:09.254Z,12.10
2017-09-10T00:41:37.575Z,12.10
2017-09-10T00:44:05.184Z,12.10
2017-09-10T00:46:32.775Z,12.10
2017-09-10T00:49:02.776Z,12.10
2017-09-10T00:51:31.146Z,12.20
2017-09-10T00:53:58.777Z,12.10
2017-09-10T00:56:26.401Z,12.20
2017-09-10T00:58:53.963Z,12.20
2017-09-10T01:01:21.524Z,12.20
2017-09-10T01:03:49.108Z,12.20
2017-09-10T01:06:16.651Z,12.20
2017-09-10T01:08:44.274Z,12.20
2017-09-10T01:11:12.597Z,12.20
2017-09-10T01:13:40.148Z,12.20
2017-09-10T01:16:07.797Z,12.20
2017-09-10T01:18:35.387Z,12.20
2017-09-10T01:21:02.987Z,12.20
2017-09-10T01:23:31.344Z,12.20
2017-09-10T01:25:58.925Z,12.20
2017-09-10T01:28:27.309Z,12.20
2017-09-10T01:30:55.627Z,12.20
2017-09-10T01:33:23.218Z,12.20
2017-09-10T01:35:50.833Z,12.20
2017-09-10T01:38:18.386Z,12.20
2017-09-10T01:40:46.723Z,12.10
2017-09-10T01:43:14.286Z,12.10
2017-09-10T01:45:42.366Z,12.10
2017-09-10T01:48:09.950Z,12.10
2017-09-10T01:50:38.275Z,12.00
2017-09-10T01:53:05.877Z,12.00
2017-09-10T01:55:34.230Z,12.00
2017-09-10T01:58:01.819Z,12.00
2017-09-10T02:00:30.160Z,12.00
2017-09-10T02:02:57.721Z,12.00
2017-09-10T02:05:25.346Z,12.00
2017-09-10T02:07:52.897Z,12.00
2017-09-10T02:10:20.491Z,12.00
2017-09-10T02:12:48.031Z,12.00
2017-09-10T02:15:15.589Z,12.00
2017-09-10T02:17:43.182Z,12.00
2017-09-10T02:20:10.756Z,12.00
2017-09-10T02:22:38.354Z,11.90
2017-09-10T02:25:05.965Z,11.90
2017-09-10T02:27:33.517Z,11.90
2017-09-10T02:30:01.103Z,11.90
2017-09-10T02:32:29.451Z,11.90
2017-09-10T02:34:57.071Z,11.90
2017-09-10T02:37:24.633Z,11.90
2017-09-10T02:39:52.228Z,11.90
2017-09-10T02:42:19.809Z,11.90
2017-09-10T02:44:47.364Z,11.90
2017-09-10T02:47:14.940Z,11.90
2017-09-10T02:49:43.265Z,11.80
2017-09-10T02:52:10.845Z,11.80
2017-09-10T02:54:38.405Z,11.80
2017-09-10T02:57:05.991Z,11.80
2017-09-10T02:59:33.548Z,11.80
2017-09-10T03:02:01.128Z,11.80
2017-09-10T03:04:29.445Z,11.80
2017-09-10T03:06:57.011Z,11.70
2017-09-10T03:09:24.588Z,11.80
2017-09-10T03:11:52.144Z,11.80
2017-09-10T03:14:19.732Z,11.80
2017-09-10T03:16:47.289Z,11.80
2017-09-10T03:19:14.855Z,11.70
2017-09-10T03:21:43.185Z,11.70
2017-09-10T03:24:10.756Z,11.70
2017-09-10T03:26:38.322Z,11.70
2017-09-10T03:29:05.897Z,11.60
2017-09-10T03:31:33.484Z,11.60
2017-09-10T03:34:01.810Z,11.60
2017-09-10T03:36:29.419Z,11.50
2017-09-10T03:38:57.727Z,11.50
2017-09-10T03:41:25.314Z,11.50
2017-09-10T03:43:52.895Z,11.50
2017-09-10T03:46:20.459Z,11.50
2017-09-10T03:48:48.035Z,11.50
2017-09-10T03:51:15.678Z,11.50
2017-09-10T03:53:43.267Z,11.50
2017-09-10T03:56:11.604Z,11.50
2017-09-10T03:58:39.184Z,11.50
2017-09-10T04:01:07.506Z,11.50
2017-09-10T04:03:35.102Z,11.50
2017-09-10T04:06:02.658Z,11.50
2017-09-10T04:08:30.227Z,11.50
2017-09-10T04:10:57.785Z,11.50
2017-09-10T04:13:25.417Z,11.50
2017-09-10T04:15:53.000Z,11.50
2017-09-10T04:18:20.565Z,11.50
2017-09-10T04:20:48.162Z,11.50
2017-09-10T04:23:16.516Z,11.50
2017-09-10T04:25:44.889Z,11.50
2017-09-10T04:28:12.470Z,11.50
2017-09-10T04:30:40.860Z,11.50
2017-09-10T04:33:08.443Z,11.50
2017-09-10T04:35:36.043Z,11.40
2017-09-10T04:38:03.598Z,11.50
2017-09-10T04:40:31.242Z,11.40
2017-09-10T04:42:58.861Z,11.40
2017-09-10T04:45:27.188Z,11.40
2017-09-10T04:47:54.817Z,11.40
2017-09-10T04:50:22.393Z,11.40
2017-09-10T04:52:50.001Z,11.40
2017-09-10T04:55:18.325Z,11.30
2017-09-10T04:57:45.949Z,11.30
2017-09-10T05:00:14.284Z,11.30
2017-09-10T05:02:41.938Z,11.30
2017-09-10T05:05:09.528Z,11.30
2017-09-10T05:07:37.076Z,11.30
2017-09-10T05:10:04.670Z,11.30
2017-09-10T05:12:33.033Z,11.30
2017-09-10T05:15:00.613Z,11.20
2017-09-10T05:17:28.173Z,11.20
2017-09-10T05:19:56.560Z,11.20
2017-09-10T05:22:24.115Z,11.20
2017-09-10T05:24:52.499Z,11.20
2017-09-10T05:27:20.053Z,11.20
2017-09-10T05:29:48.395Z,11.30
2017-09-10T05:32:15.975Z,11.20
2017-09-10T05:34:44.375Z,11.30
2017-09-10T05:37:11.987Z,11.30
2017-09-10T05:39:39.602Z,11.30
2017-09-10T05:42:07.218Z,11.30
2017-09-10T05:44:34.781Z,11.30
2017-09-10T05:47:02.381Z,11.30
2017-09-10T05:49:29.964Z,11.40
2017-09-10T05:51:57.555Z,11.40
2017-09-10T05:54:25.134Z,11.40
2017-09-10T05:56:53.500Z,11.40
2017-09-10T05:59:21.086Z,11.30
2017-09-10T06:01:48.653Z,11.40
2017-09-10T06:04:16.252Z,11.40
2017-09-10T06:06:43.806Z,11.40
2017-09-10T06:09:11.380Z,11.40
2017-09-10T06:11:38.929Z,11.40
2017-09-10T06:14:06.504Z,11.40
2017-09-10T06:16:34.074Z,11.40
2017-09-10T06:19:01.689Z,11.40
2017-09-10T06:21:29.308Z,11.40
2017-09-10T06:23:57.639Z,11.40
2017-09-10T06:26:25.277Z,11.40
2017-09-10T06:28:52.845Z,11.50
2017-09-10T06:31:20.429Z,11.50
2017-09-10T06:33:48.013Z,11.50
2017-09-10T06:36:15.597Z,11.50
2017-09-10T06:38:43.923Z,11.50
2017-09-10T06:41:11.495Z,11.50
2017-09-10T06:43:39.063Z,11.50
2017-09-10T06:46:06.631Z,11.60
2017-09-10T06:48:34.231Z,11.60
2017-09-10T06:51:01.781Z,11.60
2017-09-10T06:53:30.125Z,11.60
2017-09-10T06:55:57.676Z,11.60
2017-09-10T06:58:25.316Z,11.60
2017-09-10T07:00:52.898Z,11.60
2017-09-10T07:03:20.536Z,11.60
2017-09-10T07:05:48.102Z,11.60
2017-09-10T07:08:15.709Z,11.60
2017-09-10T07:10:44.023Z,11.70
2017-09-10T07:13:11.624Z,11.60
2017-09-10T07:15:39.250Z,11.70
2017-09-10T07:18:06.830Z,11.70
2017-09-10T07:20:34.400Z,11.70
2017-09-10T07:23:01.948Z,11.60
2017-09-10T07:25:29.540Z,11.60
2017-09-10T07:27:57.871Z,11.60
2017-09-10T07:30:25.455Z,11.60
2017-09-10T07:32:53.034Z,11.70
2017-09-10T07:35:20.589Z,11.70
2017-09-10T07:37:48.227Z,11.70
2017-09-10T07:40:15.781Z,11.70
2017-09-10T07:42:43.381Z,11.70
2017-09-10T07:45:11.714Z,11.70
2017-09-10T07:47:39.297Z,11.70
2017-09-10T07:50:06.885Z,11.70
2017-09-10T07:52:35.735Z,11.70
2017-09-10T07:55:03.444Z,11.70
2017-09-10T07:57:31.825Z,11.70
2017-09-10T08:00:00.173Z,11.70
2017-09-10T08:02:27.742Z,11.70
2017-09-10T08:04:55.332Z,11.70
2017-09-10T08:07:22.896Z,11.70
2017-09-10T08:09:50.471Z,11.80
2017-09-10T08:12:18.023Z,11.80
2017-09-10T08:14:45.601Z,11.80
2017-09-10T08:17:13.169Z,11.80
2017-09-10T08:19:40.777Z,11.80
2017-09-10T08:22:09.087Z,11.90
2017-09-10T08:24:36.638Z,11.80
2017-09-10T08:27:04.213Z,11.90
2017-09-10T08:29:31.770Z,11.90
2017-09-10T08:31:59.397Z,11.90
2017-09-10T08:34:27.715Z,11.90
2017-09-10T08:36:55.308Z,11.80
2017-09-10T08:39:22.917Z,11.80
2017-09-10T08:41:50.536Z,11.80
2017-09-10T08:44:18.907Z,11.90
2017-09-10T08:46:46.521Z,11.90
2017-09-10T08:49:14.104Z,11.90
2017-09-10T08:51:41.660Z,11.90
2017-09-10T08:54:09.249Z,11.90
2017-09-10T08:56:36.853Z,12.00
2017-09-10T08:59:04.463Z,11.90
2017-09-10T09:01:32.018Z,11.90
2017-09-10T09:03:59.610Z,12.00
2017-09-10T09:06:27.998Z,12.00
2017-09-10T09:08:56.379Z,12.00
2017-09-10T09:11:24.692Z,12.00
2017-09-10T09:13:52.257Z,12.00
2017-09-10T09:16:19.838Z,12.10
2017-09-10T09:18:47.399Z,12.10
2017-09-10T09:21:14.973Z,12.10
2017-09-10T09:23:43.306Z,12.10
2017-09-10T09:26:10.895Z,12.10
2017-09-10T09:28:38.638Z,12.20
2017-09-10T09:31:06.216Z,12.20
2017-09-10T09:33:33.767Z,12.20
2017-09-10T09:36:01.348Z,12.20
2017-09-10T09:38:28.902Z,12.30
2017-09-10T09:40:56.457Z,12.30
2017-09-10T09:43:24.032Z,12.30
2017-09-10T09:45:52.401Z,12.20
2017-09-10T09:48:19.999Z,12.20
2017-09-10T09:50:47.603Z,12.20
2017-09-10T09:53:15.213Z,12.20
2017-09-10T09:55:42.778Z,12.20
2017-09-10T09:58:10.370Z,12.10
2017-09-10T10:00:37.931Z,12.10
2017-09-10T10:03:05.478Z,12.10
2017-09-10T10:05:33.049Z,12.10
2017-09-10T10:08:00.621Z,12.20
2017-09-10T10:10:28.191Z,12.20
2017-09-10T10:12:55.739Z,12.20
2017-09-10T10:15:23.328Z,12.20
2017-09-10T10:17:51.681Z,12.30
2017-09-10T10:20:19.268Z,12.30
2017-09-10T10:22:47.598Z,12.40
2017-09-10T10:25:15.181Z,12.40
2017-09-10T10:27:44.420Z,12.40
2017-09-10T10:30:12.011Z,12.40
2017-09-10T10:32:39.579Z,12.50
2017-09-10T10:35:07.147Z,12.50
2017-09-10T10:37:34.726Z,12.50
2017-09-10T10:40:02.281Z,12.50
2017-09-10T10:42:29.902Z,12.50
2017-09-10T10:44:57.501Z,12.50
2017-09-10T10:47:25.089Z,12.50
2017-09-10T10:49:53.396Z,12.50
2017-09-10T10:52:20.954Z,12.50
2017-09-10T10:54:48.519Z,12.50
2017-09-10T10:57:16.114Z,12.50
2017-09-10T10:59:44.471Z,12.50
2017-09-10T11:02:12.579Z,12.50
2017-09-10T11:04:40.165Z,12.50
2017-09-10T11:07:08.485Z,12.60
2017-09-10T11:09:36.052Z,12.60
2017-09-10T11:12:03.606Z,12.60
2017-09-10T11:14:31.174Z,12.60
2017-09-10T11:16:58.829Z,12.60
2017-09-10T11:19:26.397Z,12.60
2017-09-10T11:21:53.971Z,12.60
2017-09-10T11:24:21.551Z,12.70
2017-09-10T11:26:49.894Z,12.70
2017-09-10T11:29:17.443Z,12.70
2017-09-10T11:31:45.045Z,12.70
2017-09-10T11:34:13.419Z,12.80
2017-09-10T11:36:41.032Z,12.80
2017-09-10T11:39:08.575Z,12.90
2017-09-10T11:41:36.120Z,12.90
2017-09-10T11:44:04.459Z,13.10
2017-09-10T11:46:32.030Z,13.10
2017-09-10T11:49:00.400Z,13.20
2017-09-10T11:51:27.977Z,13.20
2017-09-10T11:53:55.547Z,13.20
2017-09-10T11:56:23.882Z,13.30
2017-09-10T11:58:51.475Z,13.30
2017-09-10T12:01:19.038Z,13.30
2017-09-10T12:03:47.405Z,13.40
2017-09-10T12:06:14.988Z,13.30
2017-09-10T12:08:43.300Z,13.30
2017-09-10T12:11:10.891Z,13.30
2017-09-10T12:13:38.466Z,13.40
2017-09-10T12:16:06.060Z,13.30
2017-09-10T12:18:33.609Z,13.30
2017-09-10T12:21:01.977Z,13.30
2017-09-10T12:23:30.289Z,13.30
2017-09-10T12:25:57.849Z,13.30
2017-09-10T12:28:25.425Z,13.30
2017-09-10T12:30:52.963Z,13.30
2017-09-10T12:33:20.532Z,13.40
2017-09-10T12:35:48.125Z,13.40
2017-09-10T12:38:15.715Z,13.40
2017-09-10T12:40:44.023Z,13.40
2017-09-10T12:43:11.603Z,13.40
2017-09-10T12:45:39.158Z,13.40
2017-09-10T12:48:06.760Z,13.40
2017-09-10T12:50:34.324Z,13.40
2017-09-10T12:53:01.893Z,13.40
2017-09-10T12:55:30.239Z,13.40
2017-09-10T12:57:57.828Z,13.40
2017-09-10T13:00:26.173Z,13.30
2017-09-10T13:02:53.728Z,13.30
2017-09-10T13:05:21.322Z,13.40
2017-09-10T13:07:49.652Z,13.40
2017-09-10T13:10:17.233Z,13.40
2017-09-10T13:12:45.586Z,13.50
2017-09-10T13:15:13.131Z,13.50
2017-09-10T13:17:40.709Z,13.50
2017-09-10T13:20:08.248Z,13.50
2017-09-10T13:22:35.825Z,13.50
2017-09-10T13:25:03.396Z,13.50
2017-09-10T13:27:30.994Z,13.50
2017-09-10T13:29:59.318Z,13.50
2017-09-10T13:32:26.897Z,13.50
2017-09-10T13:34:54.437Z,13.50
2017-09-10T13:37:22.051Z,13.50
2017-09-10T13:39:50.411Z,13.60
2017-09-10T13:42:17.995Z,13.60
2017-09-10T13:44:46.363Z,13.70
2017-09-10T13:47:14.700Z,13.80
2017-09-10T13:49:42.284Z,13.80
2017-09-10T13:52:09.832Z,14.00
2017-09-10T13:54:37.411Z,14.10
2017-09-10T13:57:04.973Z,14.20
2017-09-10T13:59:33.316Z,14.40
2017-09-10T14:02:00.875Z,14.30
2017-09-10T14:04:28.435Z,14.40
2017-09-10T14:06:56.029Z,14.50
2017-09-10T14:09:23.597Z,14.60
2017-09-10T14:11:51.173Z,14.70
2017-09-10T14:14:18.729Z,14.80
2017-09-10T14:16:47.062Z,14.70
2017-09-10T14:19:14.609Z,14.70
2017-09-10T14:21:42.188Z,14.70
2017-09-10T14:24:10.504Z,14.60
2017-09-10T14:26:38.114Z,14.60
2017-09-10T14:29:05.665Z,14.60
2017-09-10T14:31:33.216Z,14.50
2017-09-10T14:34:00.838Z,14.50
2017-09-10T14:36:29.158Z,14.50
2017-09-10T14:38:56.725Z,14.50
2017-09-10T14:41:24.289Z,14.50
2017-09-10T14:43:51.851Z,14.50
2017-09-10T14:46:19.396Z,14.60
2017-09-10T14:48:46.988Z,14.70
2017-09-10T14:51:14.544Z,14.80
2017-09-10T14:53:42.174Z,14.80
2017-09-10T14:56:09.782Z,14.80
2017-09-10T14:58:37.351Z,14.80
2017-09-10T15:01:05.706Z,14.80
2017-09-10T15:03:33.248Z,14.80
2017-09-10T15:06:00.817Z,14.80
2017-09-10T15:08:28.360Z,14.80
2017-09-10T15:10:55.940Z,14.70
2017-09-10T15:13:23.489Z,14.70
2017-09-10T15:15:51.156Z,14.60
2017-09-10T15:18:18.727Z,14.60
2017-09-10T15:20:46.276Z,14.60
2017-09-10T15:23:13.866Z,14.60
2017-09-10T15:25:42.186Z,14.50
2017-09-10T15:28:09.759Z,14.50
2017-09-10T15:30:37.318Z,14.50
2017-09-10T15:33:04.903Z,14.40
2017-09-10T15:35:32.474Z,14.40
2017-09-10T15:38:00.813Z,14.30
2017-09-10T15:40:28.352Z,14.30
2017-09-10T15:42:55.923Z,14.30
2017-09-10T15:45:23.509Z,14.30
2017-09-10T15:47:51.051Z,14.30
2017-09-10T15:50:18.625Z,14.20
2017-09-10T15:52:46.198Z,14.30
2017-09-10T15:55:13.807Z,14.20
2017-09-10T15:57:41.368Z,14.10
2017-09-10T16:00:08.952Z,14.10
2017-09-10T16:02:36.500Z,14.10
2017-09-10T16:05:04.044Z,14.00
2017-09-10T16:07:31.611Z,14.00
2017-09-10T16:09:59.148Z,14.00
2017-09-10T16:12:27.495Z,13.90
2017-09-10T16:14:55.048Z,13.90
2017-09-10T16:17:22.624Z,13.90
2017-09-10T16:19:50.190Z,13.90
2017-09-10T16:22:18.540Z,13.80
2017-09-10T16:24:46.104Z,13.80
2017-09-10T16:27:13.691Z,13.80
2017-09-10T16:29:42.022Z,13.70
2017-09-10T16:32:09.628Z,13.70
2017-09-10T16:34:38.027Z,13.70
2017-09-10T16:37:05.626Z,13.70
2017-09-10T16:39:33.241Z,13.70
2017-09-10T16:42:01.558Z,13.60
2017-09-10T16:44:29.148Z,13.60
2017-09-10T16:46:56.704Z,13.60
2017-09-10T16:49:24.297Z,13.60
2017-09-10T16:51:52.612Z,13.50
2017-09-10T16:54:20.167Z,13.50
2017-09-10T16:56:47.741Z,13.50
2017-09-10T16:59:15.314Z,13.50
2017-09-10T17:01:42.888Z,13.50
2017-09-10T17:04:10.451Z,13.50
2017-09-10T17:06:38.873Z,13.40
2017-09-10T17:09:06.554Z,13.40
2017-09-10T17:11:34.179Z,13.40
2017-09-10T17:14:01.730Z,13.30
2017-09-10T17:16:30.089Z,13.20
2017-09-10T17:18:58.459Z,13.20
2017-09-10T17:21:26.063Z,13.20
2017-09-10T17:23:53.647Z,13.20
2017-09-10T17:26:21.194Z,13.20
2017-09-10T17:28:48.764Z,13.20
2017-09-10T17:31:16.327Z,13.10
2017-09-10T17:33:43.905Z,13.10
2017-09-10T17:36:11.475Z,13.10
2017-09-10T17:38:39.052Z,13.10
2017-09-10T17:41:07.491Z,13.00
2017-09-10T17:43:35.173Z,13.00
2017-09-10T17:46:03.239Z,13.00
2017-09-10T17:48:30.839Z,13.00
2017-09-10T17:50:59.209Z,13.00
2017-09-10T17:53:27.599Z,12.90
2017-09-10T17:55:55.969Z,12.90
2017-09-10T17:58:24.303Z,12.90
2017-09-10T18:00:52.217Z,12.90
2017-09-10T18:03:21.037Z,12.90
2017-09-10T18:05:48.666Z,12.90
2017-09-10T18:08:17.029Z,12.80
2017-09-10T18:10:44.599Z,12.80
2017-09-10T18:13:12.285Z,12.80
2017-09-10T18:15:39.865Z,12.80
2017-09-10T18:18:07.429Z,12.80
2017-09-10T18:20:34.993Z,12.70
2017-09-10T18:23:02.564Z,12.70
2017-09-10T18:25:30.120Z,12.70
2017-09-10T18:27:57.849Z,12.80
2017-09-10T18:30:25.420Z,12.70
2017-09-10T18:32:52.983Z,12.70
2017-09-10T18:35:20.568Z,12.80
2017-09-10T18:37:48.124Z,12.80
2017-09-10T18:40:15.719Z,12.80
2017-09-10T18:42:44.037Z,12.80
2017-09-10T18:45:11.618Z,12.80
2017-09-10T18:47:39.188Z,12.90
2017-09-10T18:50:06.791Z,12.90
2017-09-10T18:52:35.139Z,13.00
2017-09-10T18:55:02.775Z,12.90
2017-09-10T18:57:30.368Z,12.90
2017-09-10T18:59:57.927Z,13.00
2017-09-10T19:02:25.510Z,12.90
2017-09-10T19:04:53.855Z,12.90
2017-09-10T19:07:21.424Z,12.90
2017-09-10T19:09:49.002Z,12.90
2017-09-10T19:12:17.382Z,12.90
2017-09-10T19:14:44.939Z,12.90
2017-09-10T19:17:13.276Z,12.90
2017-09-10T19:19:40.927Z,12.90
2017-09-10T19:22:08.510Z,12.90
2017-09-10T19:24:36.093Z,12.90
2017-09-10T19:27:03.648Z,12.90
2017-09-10T19:29:31.243Z,12.90
2017-09-10T19:31:58.810Z,12.80
2017-09-10T19:34:26.393Z,12.80
2017-09-10T19:36:53.940Z,12.80
2017-09-10T19:39:21.517Z,12.80
2017-09-10T19:41:49.073Z,12.80
2017-09-10T19:44:16.623Z,12.80
2017-09-10T19:46:44.241Z,12.80
2017-09-10T19:49:11.803Z,12.70
2017-09-10T19:51:40.147Z,12.60
2017-09-10T19:54:07.699Z,12.70
2017-09-10T19:56:35.272Z,12.70
2017-09-10T19:59:02.829Z,12.60
2017-09-10T20:01:30.448Z,12.60
2017-09-10T20:03:57.992Z,12.60
2017-09-10T20:06:25.581Z,12.50
2017-09-10T20:08:53.143Z,12.50
2017-09-10T20:11:20.700Z,12.50
2017-09-10T20:13:48.303Z,12.40
2017-09-10T20:16:16.636Z,12.40
2017-09-10T20:18:44.230Z,12.40
2017-09-10T20:21:11.829Z,12.40
2017-09-10T20:23:40.800Z,12.40
2017-09-10T20:26:08.365Z,12.40
2017-09-10T20:28:36.729Z,12.40
2017-09-10T20:31:05.395Z,12.30
2017-09-10T20:33:33.006Z,12.40
2017-09-10T20:36:00.583Z,12.30
2017-09-10T20:38:28.219Z,12.30
2017-09-10T20:40:55.810Z,12.30
2017-09-10T20:43:23.355Z,12.30
2017-09-10T20:45:50.942Z,12.30
2017-09-10T20:48:18.541Z,12.20
2017-09-10T20:50:46.946Z,12.20
2017-09-10T20:53:14.505Z,12.10
2017-09-10T20:55:42.097Z,12.10
2017-09-10T20:58:09.654Z,12.10
2017-09-10T21:00:37.238Z,12.00
2017-09-10T21:03:04.830Z,12.00
2017-09-10T21:05:32.399Z,12.00
2017-09-10T21:07:59.982Z,12.00
2017-09-10T21:10:27.582Z,12.00
2017-09-10T21:12:55.148Z,12.00
2017-09-10T21:15:23.503Z,11.90
2017-09-10T21:17:51.122Z,11.90
2017-09-10T21:20:18.720Z,11.80
2017-09-10T21:22:46.545Z,11.80
2017-09-10T21:25:14.125Z,11.70
2017-09-10T21:27:41.677Z,11.70
2017-09-10T21:30:09.283Z,11.60
2017-09-10T21:32:36.827Z,11.60
2017-09-10T21:35:04.403Z,11.60
2017-09-10T21:37:31.956Z,11.50
2017-09-10T21:39:59.519Z,11.50
2017-09-10T21:42:27.074Z,11.40
2017-09-10T21:44:54.648Z,11.30
2017-09-10T21:47:22.218Z,11.30
2017-09-10T21:49:50.569Z,11.30
2017-09-10T21:52:18.158Z,11.30
2017-09-10T21:54:46.471Z,11.20
2017-09-10T21:57:14.097Z,11.20
2017-09-10T21:59:42.429Z,11.20
2017-09-10T22:02:10.014Z,11.20
2017-09-10T22:04:37.586Z,11.20
2017-09-10T22:07:05.180Z,11.20
2017-09-10T22:09:32.754Z,11.10
2017-09-10T22:12:00.324Z,11.10
2017-09-10T22:14:27.925Z,11.10
2017-09-10T22:16:55.480Z,11.10
2017-09-10T22:19:23.837Z,11.10
2017-09-10T22:21:51.441Z,11.10
2017-09-10T22:24:19.868Z,11.10
2017-09-10T22:26:47.411Z,11.10
2017-09-10T22:29:14.984Z,11.10
2017-09-10T22:31:42.531Z,11.10
2017-09-10T22:34:12.767Z,11.10
2017-09-10T22:36:42.876Z,11.00
2017-09-10T22:39:10.414Z,11.00
2017-09-10T22:41:38.666Z,11.00
2017-09-10T22:44:06.237Z,11.00
2017-09-10T22:46:34.575Z,10.90
2017-09-10T22:49:02.146Z,10.90
2017-09-10T22:51:29.751Z,10.90
2017-09-10T22:53:57.315Z,10.90
2017-09-10T22:56:24.940Z,10.80
2017-09-10T22:58:52.480Z,10.80
2017-09-10T23:01:20.050Z,10.80
2017-09-10T23:03:47.639Z,10.80
2017-09-10T23:06:15.968Z,10.70
2017-09-10T23:08:43.555Z,10.70
2017-09-10T23:11:11.145Z,10.60
2017-09-10T23:13:38.720Z,10.60
2017-09-10T23:16:06.287Z,10.60
2017-09-10T23:18:33.862Z,10.50
2017-09-10T23:21:01.404Z,10.50
2017-09-10T23:23:29.017Z,10.50
2017-09-10T23:25:57.364Z,10.40
2017-09-10T23:28:24.918Z,10.40
2017-09-10T23:30:52.512Z,10.40
2017-09-10T23:33:20.110Z,10.40
2017-09-10T23:35:47.701Z,10.30
2017-09-10T23:38:15.253Z,10.30
2017-09-10T23:40:42.829Z,10.30
2017-09-10T23:43:10.395Z,10.20
2017-09-10T23:45:40.158Z,10.20
2017-09-10T23:48:10.222Z,10.10
2017-09-10T23:50:37.795Z,10.10
2017-09-10T23:53:05.373Z,10.10
2017-09-10T23:55:32.949Z,10.00
2017-09-10T23:58:00.529Z,10.00
